Meteoliendo - El tiempo en Liendo - Informes METAR de Aeropuertos cercanos

Informes METAR de Aeropuertos cercanos

 

LEXJ - Santander
Actualización: 29/03/2017 01:00
Despejado
Despejado
 Viento del varies
Viento: varies 4 km/h
Temperatura: 10°C
Rocío: 8°C
Humedad: 88%
Barómetro: 1025 hPa
Clouds: Despejado
Visibility: 8 km
2017/03/28 23:00 LEXJ 282300Z AUTO VRB02KT 8000 NCD 10/08 Q1025
LEAS - Asturias/Aviles
Actualización: 29/03/2017 01:00

 Viento del OSO
Viento: OSO 11 km/h
Visibility: 10 km
2017/03/28 23:00 LEAS 282300Z AUTO 24006KT 9999 4500 NCD 15/07 Q1025
LEBB - Bilbao
Actualización: 29/03/2017 01:00

 Viento del SE
Viento: SE 9 km/h
Visibility: 10 km
2017/03/28 23:00 LEBB 282300Z AUTO 13005KT 090V150 9999 4800 FEW050 12/07 Q1026
 
LEBG - Burgos/Villafría
Actualización: 29/03/2017 01:00
Despejado
Despejado
 Viento del calm
Viento: Calma
Temperatura: 3°C
Rocío: 1°C
Humedad: 87%
Barómetro: 1028 hPa
Clouds: Despejado
Visibility: 10 km
2017/03/28 23:00 LEBG 282300Z AUTO 00000KT 9999 NCD 03/01 Q1028
LELO - Logroño
Actualización: 28/03/2017 23:00
NOT Current
Despejado
Despejado
 Viento del calm
Viento: Calma
Temperatura: 10°C
Rocío: 8°C
Humedad: 88%
Barómetro: 1027 hPa
Resumen: Despejado
Visibility: greater than 10 km
2017/03/28 21:00 LELO 282100Z 00000KT CAVOK 10/08 Q1027
LEPP - Pamplona
Actualización: 29/03/2017 01:00
Despejado
Despejado
 Viento del SE
Viento: SE 6 km/h
Temperatura: 7°C
Rocío: 5°C
Humedad: 87%
Barómetro: 1028 hPa
Clouds: Despejado
Visibility: 10 km
2017/03/28 23:00 LEPP 282300Z AUTO 14003KT 9999 NCD 07/05 Q1028
 
LESO - San Sebastián
Actualización: 29/03/2017 01:00
Despejado
Despejado
 Viento del SSO
Viento: SSO 6 km/h
Temperatura: 11°C
Rocío: 9°C
Humedad: 88%
Barómetro: 1026 hPa
Clouds: Despejado
Visibility: 10 km
2017/03/28 23:00 LESO 282300Z AUTO 21003KT 170V240 9999 NCD 11/09 Q1026
LEST - Santiago de Compostela
Actualización: 29/03/2017 01:00
Parcialmente nuboso
Parcialmente nuboso
 Viento del S
Viento: S 28 km/h
Temperatura: 12°C
Rocío: 6°C
Humedad: 67%
Barómetro: 1026 hPa
Clouds: Parcialmente nuboso
Visibility: 10 km
Cloud details: Parcialmente nuboso 1372 m
2017/03/28 23:00 LEST 282300Z 19015KT 160V220 9999 SCT045 12/06 Q1026 NOSIG
LEVT - Vitoria
Actualización: 29/03/2017 01:00
Despejado
Despejado
 Viento del calm
Viento: Calma
Temperatura: 4°C
Rocío: 2°C
Humedad: 87%
Barómetro: 1028 hPa
Resumen: Despejado
Visibility: greater than 10 km
2017/03/28 23:00 LEVT 282300Z 00000KT CAVOK 04/02 Q1028